広島空港の過去48時間の天気

広島空港 (New hiroshima)

現在時刻: 9/23 06:20 JST (9/22 21:20 UTC) 以下の時間は現地時間です。

過去48時間のMETAR気象情報
時間 風向 風速(m/s) 視程 気温(℃) 湿度(%) 気圧(hPa) 天気現象
23 06:10 南西 4 10km以上 22 73 1005
22 22:00 東南東 5 10km以上 23 89 1001
22 21:00 7 10km以上 23 89 1002
22 20:10 東南東 5 6000m 23 89 1003 弱いしゅう雨 散在した霧
22 19:43 7 8000m 23 83 1003 散在した霧
22 19:27 6 6000m 23 89 1003 散在した霧
22 19:00 東南東 7 4000m 23 89 1003 弱いしゅう雨 散在した霧 もや
22 18:46 7 3500m 22 88 1004 弱いしゅう雨 散在した霧 もや
22 18:33 6 2000m 22 88 1004 しゅう雨 散在した霧 もや
22 18:30 7 3000m 22 88 1004 しゅう雨 散在した霧 もや
22 18:18 8 3000m 22 88 1004 弱いしゅう雨 散在した霧 もや
22 18:00 7 2200m 22 88 1004 しゅう雨 散在した霧 もや
22 17:49 東南東 5 2000m 22 88 1005 散在した霧 しゅう雨 もや
22 17:36 7 3500m 22 88 1005 しゅう雨 もや
22 17:20 8 3000m 22 88 1004 しゅう雨 もや
22 17:00 8 6000m 22 88 1005 弱いしゅう雨
22 16:00 9 10km以上 22 83 1005 弱いしゅう雨
22 15:00 9 10km以上 23 78 1006
22 14:00 8 10km以上 23 78 1007 弱いしゅう雨
22 13:00 東北東 9 10km以上 22 83 1008
22 12:00 東北東 7 10km以上 21 88 1010 弱いしゅう雨
22 11:31 7 10km以上 22 83 1010
22 11:00 東北東 8 10km以上 22 83 1011 部分霧
22 10:30 東北東 8 10km以上 22 83 1011 部分霧
22 10:00 東北東 8 10km以上 21 88 1012 弱いしゅう雨 部分霧
22 09:00 東北東 8 10km以上 21 88 1012 弱いしゅう雨 散在した霧
22 08:00 東北東 8 10km以上 20 88 1012 弱いしゅう雨 散在した霧
22 07:07 東北東 8 5000m 20 88 1013 弱いしゅう雨 散在した霧 もや
22 07:00 東北東 8 3500m 20 88 1013 しゅう雨 散在した霧 もや
22 06:51 東北東 8 4000m 20 88 1012 弱いしゅう雨 散在した霧 もや
22 06:39 東北東 7 2000m 20 88 1013 しゅう雨 散在した霧 もや
22 06:24 9 3000m 20 88 1013 しゅう雨 散在した霧 もや
22 06:10 東北東 8 3500m 20 88 1013 しゅう雨 散在した霧 もや
21 22:00 東北東 7 10km以上 20 83 1016
21 21:00 東北東 7 10km以上 19 83 1017
21 20:00 東北東 5 10km以上 19 88 1017 弱い雨
21 19:00 東北東 5 10km以上 20 78 1016
21 18:00 東北東 5 10km以上 20 78 1016
21 17:00 東北東 6 10km以上 20 78 1016
21 16:00 6 10km以上 20 78 1016
21 15:00 4 10km以上 21 69 1016
21 14:00 5 10km以上 21 69 1016
21 13:00 東北東 6 10km以上 20 73 1017
21 12:00 東北東 6 10km以上 20 73 1018
21 11:00 6 10km以上 19 73 1018
21 10:00 5 10km以上 18 77 1019
21 09:00 東北東 5 10km以上 18 73 1019
21 08:00 東北東 6 10km以上 17 77 1019
21 07:00 北東 4 10km以上 16 82 1018
RJOA 222110Z 22007KT 180V250 9999 FEW007 SCT010 BKN015 22/17 Q1005 RMK 1ST007 3CU010 5CU015 A2969 P/RR
RJOA 221300Z 11009KT 9999 FEW002 SCT030 BKN080 23/21 Q1001
RJOA 221200Z 10013KT 9999 FEW002 SCT008 BKN030 23/21 Q1002
RJOA 221110Z 11010KT 6000 -SHRA BCFG FEW000 SCT006 BKN010 23/21 Q1003 RMK 1ST000 3ST006 5CU010 A2962 FG BANK SE AND S-SW
RJOA 221043Z 10014KT 8000 BCFG FEW000 SCT006 BKN040 23/20 Q1003 RMK 1ST000 3ST006 5CU040 A2962 FG BANK SE AND S-SW
RJOA 221027Z 10012KT 6000 BCFG FEW000 BKN006 BKN070 23/21 Q1003 RMK 1ST000 5ST006 6AC070 A2963 FG BANK SE AND S-SW
RJOA 221000Z 11013KT 4000 -SHRA BCFG BR FEW000 SCT005 BKN010 23/21 Q1003
RJOA 220946Z 10013KT 3500 -SHRA BCFG BR FEW000 SCT002 BKN005 22/20 Q1004 RMK 1ST000 3ST002 5ST005 A2965 FG E-SE AND S-W
RJOA 220933Z 10012KT 2000 SHRA BCFG BR FEW000 BKN005 BKN010 22/20 Q1004 RMK 1ST000 5ST005 6CU010 A2966 FG E-SE AND S-W
RJOA 220930Z 10013KT 3000 SHRA BCFG BR FEW000 SCT002 BKN005 22/20 Q1004 RMK 1ST000 3ST002 5ST005 A2966 FG E-SE AND S-W
RJOA 220918Z 10016KT 3000 -SHRA BCFG BR FEW000 SCT002 BKN005 22/20 Q1004 RMK 1ST000 3ST002 5ST005 A2965 FG SE AND S-W
RJOA 220900Z 10013KT 2200 SHRA BCFG BR FEW000 SCT002 BKN005 22/20 Q1004
RJOA 220849Z 11010KT 2000 R10/1800D SHRA BCFG BR FEW000 SCT002 BKN005 22/20 Q1005 RMK 1ST000 3ST002 5ST005 A2968 FG SE AND S-SW
RJOA 220836Z 09013KT 3500 R10/1800D SHRA BR FEW003 BKN006 BKN010 22/20 Q1005 RMK 1ST003 5ST006 6CU010 A2968
RJOA 220820Z 08015KT 3000 SHRA BR FEW003 BKN006 BKN010 22/20 Q1004 RMK 1ST003 5ST006 6CU010 A2967
RJOA 220800Z 08015KT 6000 -SHRA FEW003 SCT006 BKN010 22/20 Q1005
RJOA 220700Z 08017KT 9999 -SHRA FEW010 BKN015 BKN120 22/19 Q1005
RJOA 220600Z 08017KT 9999 FEW005 SCT008 BKN012 23/19 Q1006
RJOA 220500Z 09015KT 9999 -SHRA FEW003 SCT009 BKN012 23/19 Q1007
RJOA 220400Z 07018KT 9999 FEW003 SCT006 BKN008 22/19 Q1008
RJOA 220300Z 07014KT 9999 -SHRA FEW002 BKN007 BKN010 21/19 Q1010
RJOA 220231Z 08013KT 9999 FEW002 SCT008 BKN010 22/19 Q1010 RMK 1ST002 3ST008 6CU010 A2983
RJOA 220200Z 07015KT 9999 PRFG FEW000 SCT004 BKN007 22/19 Q1011
RJOA 220130Z 07015KT 9999 PRFG FEW000 SCT003 BKN006 22/19 Q1011 RMK 1ST000 3ST003 5ST006 A2987 FG BANK SW
RJOA 220100Z 07016KT 9999 -SHRA PRFG FEW000 SCT003 BKN005 21/19 Q1012
RJOA 220000Z 07016KT 9999 -SHRA BCFG FEW000 SCT002 BKN005 21/19 Q1012
RJOA 212300Z 07016KT 9999 -SHRA BCFG FEW000 SCT002 BKN005 20/18 Q1012
RJOA 212207Z 07015KT 5000 -SHRA BCFG BR FEW000 SCT002 BKN008 20/18 Q1013 RMK 1ST000 3ST002 5ST008 A2992 FG BANK SE AND SW
RJOA 212200Z 07015KT 3500 SHRA BCFG BR FEW000 SCT002 BKN008 20/18 Q1013
RJOA 212151Z 07015KT 4000 -SHRA BCFG BR FEW000 SCT002 BKN010 20/18 Q1012 RMK 1ST000 3ST002 5CU010 A2991 FG E-SE AND SW-W
RJOA 212139Z 07014KT 2000 R10/1600VP1800N SHRA BCFG BR FEW000 SCT002 BKN008 20/18 Q1013 RMK 1ST000 3ST002 5ST008 A2991 FG ALL QUAD
RJOA 212124Z 08017KT 3000 SHRA BCFG BR FEW000 SCT003 BKN008 20/18 Q1013 RMK 1ST000 3ST003 5ST008 A2992 FG SE-S AND SW-W
RJOA 212110Z 07016KT 3500 SHRA BCFG BR FEW000 SCT003 BKN008 20/18 Q1013 RMK 1ST000 3ST003 5ST008 A2992 FG BANK SE AND S-W
RJOA 211300Z 07013KT 9999 FEW010 SCT040 BKN/// 20/17 Q1016
RJOA 211200Z 07013KT 9999 FEW010 BKN140 19/16 Q1017
RJOA 211100Z 06010KT 9999 -RA FEW010 BKN120 BKN140 19/17 Q1017
RJOA 211000Z 06010KT 9999 FEW012 BKN070 BKN130 20/16 Q1016
RJOA 210900Z 06010KT 9999 FEW010 SCT030 BKN150 20/16 Q1016
RJOA 210800Z 07011KT 9999 FEW010 BKN030 BKN150 20/16 Q1016
RJOA 210700Z 08011KT 9999 FEW012 SCT025 BKN110 20/16 Q1016
RJOA 210600Z 08007KT 030V130 9999 FEW012 BKN025 21/15 Q1016
RJOA 210500Z 08010KT 9999 FEW012 BKN025 BKN045 21/15 Q1016
RJOA 210400Z 07011KT 9999 SCT012 BKN030 20/15 Q1017
RJOA 210300Z 07012KT 9999 FEW015 BKN030 BKN050 20/15 Q1018
RJOA 210200Z 08012KT 9999 FEW020 BKN045 19/14 Q1018
RJOA 210100Z 08010KT 9999 FEW015 SCT020 BKN030 18/14 Q1019
RJOA 210000Z 06010KT 9999 FEW001 BKN020 BKN030 18/13 Q1019
RJOA 202300Z 06011KT 9999 FEW001 BKN025 17/13 Q1019
RJOA 202200Z 04007KT 9999 FEW002 BKN030 16/13 Q1018